createdAt,value
2023-01-11T00:03:02.556Z,4.90
2023-01-11T00:08:24.435Z,5.28
2023-01-11T00:13:45.629Z,3.25
2023-01-11T00:19:06.519Z,3.65
2023-01-11T00:24:27.238Z,3.80
2023-01-11T00:29:47.734Z,3.97
2023-01-11T00:35:09.065Z,3.95
2023-01-11T00:40:29.840Z,3.15
2023-01-11T00:46:09.130Z,3.60
2023-01-11T00:51:29.621Z,2.80
2023-01-11T00:56:50.498Z,3.55
2023-01-11T01:02:12.223Z,2.85
2023-01-11T01:07:32.748Z,3.53
2023-01-11T01:13:12.488Z,3.47
2023-01-11T01:18:33.055Z,5.38
2023-01-11T01:23:54.343Z,2.30
2023-01-11T01:29:15.917Z,3.25
2023-01-11T01:34:37.535Z,3.40
2023-01-11T01:39:57.959Z,2.83
2023-01-11T01:45:24.820Z,3.53
2023-01-11T01:50:51.064Z,4.35
2023-01-11T01:56:20.203Z,5.70
2023-01-11T02:01:47.783Z,3.38
2023-01-11T02:07:16.206Z,4.40
2023-01-11T02:12:57.239Z,2.95
2023-01-11T02:18:19.648Z,2.30
2023-01-11T02:23:58.748Z,3.55
2023-01-11T02:29:44.355Z,3.97
2023-01-11T02:35:32.288Z,4.25
2023-01-11T02:41:21.246Z,2.75
2023-01-11T02:46:48.287Z,2.80
2023-01-11T02:52:14.423Z,3.45
2023-01-11T02:57:38.006Z,3.28
2023-01-11T03:03:09.701Z,3.05
2023-01-11T03:08:45.692Z,2.75
2023-01-11T03:14:21.419Z,3.35
2023-01-11T03:19:51.020Z,3.47
2023-01-11T03:25:35.853Z,3.83
2023-01-11T03:31:15.621Z,1.57
2023-01-11T03:36:48.330Z,2.40
2023-01-11T03:42:11.586Z,3.47
2023-01-11T03:47:34.162Z,4.78
2023-01-11T03:52:55.767Z,4.00
2023-01-11T03:58:16.809Z,4.00
2023-01-11T04:03:37.464Z,5.22
2023-01-11T04:08:58.082Z,3.97
2023-01-11T04:14:18.808Z,3.40
2023-01-11T04:19:39.467Z,5.22
2023-01-11T04:25:00.295Z,3.60
2023-01-11T04:30:21.118Z,6.38
2023-01-11T04:35:42.216Z,4.63
2023-01-11T04:41:23.699Z,5.18
2023-01-11T04:46:44.486Z,5.65
2023-01-11T04:52:05.480Z,6.53
2023-01-11T04:57:26.124Z,6.00
2023-01-11T05:02:46.763Z,3.83
2023-01-11T05:08:07.198Z,5.78
2023-01-11T05:13:43.549Z,7.70
2023-01-11T05:19:06.191Z,6.05
2023-01-11T05:24:26.808Z,4.70
2023-01-11T05:29:47.631Z,6.38
2023-01-11T05:35:11.197Z,8.10
2023-01-11T05:40:32.134Z,4.70
2023-01-11T05:45:53.055Z,5.63
2023-01-11T05:51:13.897Z,6.70
2023-01-11T05:56:34.417Z,7.38
2023-01-11T06:01:55.173Z,6.35
2023-01-11T06:07:15.780Z,7.53
2023-01-11T06:12:36.349Z,7.72
2023-01-11T06:17:56.973Z,6.10
2023-01-11T06:23:17.789Z,6.53
2023-01-11T06:28:38.783Z,5.57
2023-01-11T06:33:59.610Z,5.93
2023-01-11T06:39:20.449Z,6.90
2023-01-11T06:44:40.762Z,6.53
2023-01-11T06:50:01.219Z,4.78
2023-01-11T06:55:22.659Z,4.05
2023-01-11T07:00:43.091Z,5.57
2023-01-11T07:06:04.655Z,4.38
2023-01-11T07:11:25.259Z,5.38
2023-01-11T07:16:46.973Z,4.45
2023-01-11T07:22:08.270Z,3.97
2023-01-11T07:27:28.756Z,4.07
2023-01-11T07:32:49.430Z,4.93
2023-01-11T07:38:11.306Z,5.18
2023-01-11T07:43:33.576Z,4.97
2023-01-11T07:48:54.013Z,4.93
2023-01-11T07:54:14.491Z,4.25
2023-01-11T07:59:35.082Z,4.03
2023-01-11T08:04:55.666Z,5.22
2023-01-11T08:10:16.936Z,4.68
2023-01-11T08:15:42.619Z,4.00
2023-01-11T08:21:03.612Z,3.70
2023-01-11T08:26:25.210Z,4.15
2023-01-11T08:31:46.973Z,3.97
2023-01-11T08:37:07.671Z,3.08
2023-01-11T08:42:28.167Z,4.43
2023-01-11T08:47:50.719Z,4.30
2023-01-11T08:53:12.462Z,3.88
2023-01-11T08:58:32.886Z,4.55
2023-01-11T09:03:53.666Z,5.43
2023-01-11T09:09:14.367Z,3.90
2023-01-11T09:14:35.171Z,3.47
2023-01-11T09:19:55.613Z,4.43
2023-01-11T09:25:16.587Z,3.78
2023-01-11T09:30:39.150Z,2.75
2023-01-11T09:36:00.983Z,3.38
2023-01-11T09:41:44.912Z,4.47
2023-01-11T09:47:17.192Z,3.78
2023-01-11T09:52:42.220Z,4.32
2023-01-11T09:58:03.021Z,2.80
2023-01-11T10:03:43.160Z,2.03
2023-01-11T10:18:31.860Z,5.10
2023-01-11T10:21:12.022Z,4.68
2023-01-11T10:26:40.112Z,4.88
2023-01-11T10:32:02.671Z,3.65
2023-01-11T10:38:02.462Z,6.75
2023-01-11T10:43:26.058Z,4.90
2023-01-11T10:48:47.061Z,5.05
2023-01-11T10:54:20.113Z,3.28
2023-01-11T10:59:50.900Z,3.42
2023-01-11T11:05:11.710Z,5.60
2023-01-11T11:10:35.334Z,4.65
2023-01-11T11:16:10.850Z,3.75
2023-01-11T11:21:37.733Z,4.95
2023-01-11T11:34:32.228Z,4.65
2023-01-11T11:39:54.140Z,5.05
2023-01-11T11:45:17.046Z,4.18
2023-01-11T11:50:45.919Z,4.22
2023-01-11T11:56:14.827Z,4.10
2023-01-11T12:01:39.493Z,5.55
2023-01-11T12:07:12.429Z,5.18
2023-01-11T12:12:34.269Z,5.72
2023-01-11T12:17:56.362Z,4.00
2023-01-11T12:23:24.033Z,4.95
2023-01-11T12:29:09.400Z,4.47
2023-01-11T12:34:48.775Z,4.68
2023-01-11T12:40:12.351Z,4.53
2023-01-11T12:46:04.807Z,5.13
2023-01-11T12:51:34.697Z,4.60
2023-01-11T12:57:05.966Z,3.33
2023-01-11T13:02:36.341Z,4.20
2023-01-11T13:08:07.073Z,4.47
2023-01-11T13:13:41.498Z,4.50
2023-01-11T13:19:15.012Z,3.92
2023-01-11T13:24:35.660Z,3.70
2023-01-11T13:29:59.275Z,3.78
2023-01-11T13:35:33.529Z,3.73
2023-01-11T13:40:59.915Z,4.00
2023-01-11T13:46:36.805Z,4.85
2023-01-11T13:52:04.004Z,4.20
2023-01-11T13:57:30.455Z,4.43
2023-01-11T14:03:13.966Z,4.13
2023-01-11T14:08:53.592Z,5.53
2023-01-11T14:14:27.501Z,5.13
2023-01-11T14:20:02.234Z,3.55
2023-01-11T14:25:29.734Z,4.57
2023-01-11T14:30:56.791Z,4.75
2023-01-11T14:36:45.116Z,5.75
2023-01-11T14:42:34.986Z,4.93
2023-01-11T14:48:20.737Z,5.10
2023-01-11T14:53:52.009Z,4.82
2023-01-11T14:59:31.167Z,4.03
2023-01-11T15:04:51.887Z,4.97
2023-01-11T15:10:30.727Z,4.50
2023-01-11T15:16:24.103Z,3.85
2023-01-11T15:21:50.258Z,4.90
2023-01-11T15:27:25.296Z,5.18
2023-01-11T15:32:45.803Z,5.32
2023-01-11T15:38:21.496Z,4.65
2023-01-11T15:44:24.003Z,5.43
2023-01-11T15:50:12.557Z,4.50
2023-01-11T15:56:18.963Z,3.88
2023-01-11T16:02:01.576Z,5.63
2023-01-11T16:07:40.397Z,5.40
2023-01-11T16:13:26.269Z,5.13
2023-01-11T16:18:53.074Z,5.55
2023-01-11T16:24:26.660Z,6.00
2023-01-11T16:29:50.571Z,5.88
2023-01-11T16:35:23.796Z,7.78
2023-01-11T16:40:51.307Z,5.20
2023-01-11T16:46:46.552Z,4.20
2023-01-11T16:52:28.831Z,4.93
2023-01-11T16:57:53.763Z,4.22
2023-01-11T17:03:26.872Z,7.13
2023-01-11T17:08:52.794Z,5.40
2023-01-11T17:14:36.956Z,4.93
2023-01-11T17:19:59.200Z,4.38
2023-01-11T17:25:29.476Z,5.55
2023-01-11T17:30:59.152Z,6.13
2023-01-11T17:36:19.746Z,5.20
2023-01-11T17:42:00.013Z,5.32
2023-01-11T17:47:22.006Z,6.05
2023-01-11T17:52:54.049Z,6.57
2023-01-11T17:58:20.124Z,5.30
2023-01-11T18:03:49.279Z,5.55
2023-01-11T18:09:29.345Z,4.55
2023-01-11T18:14:56.358Z,5.68
2023-01-11T18:20:29.285Z,6.07
2023-01-11T18:25:50.192Z,6.10
2023-01-11T18:31:11.093Z,7.28
2023-01-11T18:36:31.700Z,5.07
2023-01-11T18:42:07.423Z,5.45
2023-01-11T18:47:30.216Z,6.18
2023-01-11T18:52:51.033Z,6.22
2023-01-11T18:58:11.725Z,6.75
2023-01-11T19:03:32.240Z,6.50
2023-01-11T19:08:52.687Z,6.57
2023-01-11T19:14:13.006Z,7.97
2023-01-11T19:27:06.027Z,7.20
2023-01-11T19:32:27.115Z,4.82
2023-01-11T19:37:48.139Z,4.95
2023-01-11T19:43:09.021Z,5.82
2023-01-11T19:48:31.680Z,5.57
2023-01-11T19:53:53.771Z,5.53
2023-01-11T19:59:15.648Z,6.05
2023-01-11T20:04:37.106Z,4.45
2023-01-11T20:09:57.957Z,5.30
2023-01-11T20:15:18.823Z,7.05
2023-01-11T20:20:39.599Z,6.15
2023-01-11T20:26:01.731Z,5.05
2023-01-11T20:31:28.133Z,4.63
2023-01-11T20:36:49.168Z,6.28
2023-01-11T20:42:12.566Z,5.03
2023-01-11T20:47:33.217Z,5.93
2023-01-11T20:52:53.626Z,5.50
2023-01-11T20:58:14.398Z,6.57
2023-01-11T21:03:35.190Z,4.78
2023-01-11T21:08:57.505Z,5.63
2023-01-11T21:14:18.247Z,6.88
2023-01-11T21:19:38.880Z,3.60
2023-01-11T21:24:59.625Z,2.80
2023-01-11T21:30:21.618Z,2.88
2023-01-11T21:35:42.510Z,4.15
2023-01-11T21:41:08.544Z,3.80
2023-01-11T21:46:29.231Z,2.80
2023-01-11T21:51:50.765Z,2.05
2023-01-11T21:57:11.188Z,2.33
2023-01-11T22:02:31.799Z,2.58
2023-01-11T22:07:52.480Z,2.83
2023-01-11T22:13:15.723Z,2.53
2023-01-11T22:18:36.855Z,2.13
2023-01-11T22:23:59.233Z,2.45
2023-01-11T22:29:20.051Z,2.65
2023-01-11T22:34:40.728Z,2.20
2023-01-11T22:40:02.047Z,2.65
2023-01-11T22:45:23.779Z,2.95
2023-01-11T22:50:44.460Z,3.72
2023-01-11T22:56:05.661Z,3.25
2023-01-11T23:01:27.846Z,4.45
2023-01-11T23:06:48.672Z,3.60
2023-01-11T23:12:28.204Z,3.20
2023-01-11T23:17:48.868Z,2.60
2023-01-11T23:23:09.478Z,2.97
2023-01-11T23:28:32.923Z,3.65
2023-01-11T23:33:56.668Z,1.27
2023-01-11T23:39:18.786Z,2.10
2023-01-11T23:44:39.435Z,1.92
2023-01-11T23:50:01.049Z,2.15
2023-01-11T23:55:21.450Z,2.10
